Time;durP1;ratioP1;P1;durP2;ratioP2;P2;SDS_P1;SDS_P2;PMS_P1;PMS_P2;Temp;Humidity;BMP_temperature;BMP_pressure;BME280_temperature;BME280_humidity;BME280_pressure;Samples;Min_cycle;Max_cycle;Signal;HPM_P1;HPM_P2
2023/06/20 00:03:29;;;;;;;14.02;6.28;;;;;;;;;;5030046;28;20681;-62
2023/06/20 00:07:09;;;;;;;16.42;6.32;;;;;;;;;;5049087;28;20132;-64
2023/06/20 00:10:52;;;;;;;14.75;5.57;;;;;;;;;;5038317;28;20506;-63
2023/06/20 00:14:32;;;;;;;13.73;5.55;;;;;;;;;;5051928;28;20052;-61
2023/06/20 00:18:14;;;;;;;13.32;5.82;;;;;;;;;;5041641;28;20059;-62
2023/06/20 00:21:54;;;;;;;15.68;5.50;;;;;;;;;;5042313;28;20080;-61
2023/06/20 00:25:34;;;;;;;10.93;5.63;;;;;;;;;;5045127;28;20047;-61
2023/06/20 00:29:15;;;;;;;19.27;5.80;;;;;;;;;;5041698;28;20397;-62
2023/06/20 00:32:58;;;;;;;10.40;5.68;;;;;;;;;;5043803;28;20052;-61
2023/06/20 00:36:38;;;;;;;14.10;5.72;;;;;;;;;;5047916;28;20045;-62
2023/06/20 00:40:17;;;;;;;16.55;5.88;;;;;;;;;;5045142;28;20493;-63
2023/06/20 00:43:58;;;;;;;17.48;6.07;;;;;;;;;;5045846;28;20060;-62
2023/06/20 00:47:39;;;;;;;10.90;5.70;;;;;;;;;;5045513;28;20047;-63
2023/06/20 00:51:19;;;;;;;12.75;5.95;;;;;;;;;;5044647;28;20045;-61
2023/06/20 00:55:00;;;;;;;12.18;5.57;;;;;;;;;;5037848;28;20132;-60
2023/06/20 00:58:40;;;;;;;14.23;6.10;;;;;;;;;;5042570;28;20035;-62
2023/06/20 01:02:21;;;;;;;17.80;5.78;;;;;;;;;;5043923;28;20076;-62
2023/06/20 01:06:03;;;;;;;11.80;4.97;;;;;;;;;;5041769;28;20465;-62
2023/06/20 01:09:46;;;;;;;14.73;5.25;;;;;;;;;;5040014;28;20045;-61
2023/06/20 01:13:18;;;;;;;11.43;5.05;;;;;;;;;;5048672;28;20052;-61
2023/06/20 01:17:00;;;;;;;14.70;5.22;;;;;;;;;;5045815;28;20037;-63
2023/06/20 01:20:08;;;;;;;8.60;5.05;;;;;;;;;;5041786;28;20076;-63
2023/06/20 01:23:46;;;;;;;15.55;5.45;;;;;;;;;;5041571;28;20049;-63
2023/06/20 01:27:35;;;;;;;15.07;5.47;;;;;;;;;;5041661;28;20057;-63
2023/06/20 01:31:25;;;;;;;9.32;5.25;;;;;;;;;;5047106;28;20136;-61
2023/06/20 01:35:11;;;;;;;15.02;5.68;;;;;;;;;;5036133;28;20456;-61
2023/06/20 01:38:51;;;;;;;11.30;5.60;;;;;;;;;;5043298;28;20044;-61
2023/06/20 01:42:31;;;;;;;14.70;6.35;;;;;;;;;;5035192;28;20049;-61
2023/06/20 01:46:12;;;;;;;12.98;6.60;;;;;;;;;;5045896;28;20052;-63
2023/06/20 01:49:52;;;;;;;12.32;6.70;;;;;;;;;;5045284;28;20148;-61
2023/06/20 01:53:32;;;;;;;14.45;6.72;;;;;;;;;;5040614;28;20045;-61
2023/06/20 01:57:13;;;;;;;13.40;6.18;;;;;;;;;;5041300;28;20429;-61
2023/06/20 02:00:53;;;;;;;13.65;6.82;;;;;;;;;;5045114;28;20087;-62
2023/06/20 02:04:34;;;;;;;15.30;6.78;;;;;;;;;;5055395;28;20045;-61
2023/06/20 02:08:14;;;;;;;13.57;6.85;;;;;;;;;;5047377;28;20048;-60
2023/06/20 02:11:54;;;;;;;11.85;5.60;;;;;;;;;;5032505;28;20059;-62
2023/06/20 02:15:36;;;;;;;11.45;5.70;;;;;;;;;;5044316;28;20060;-61
2023/06/20 02:19:17;;;;;;;10.40;5.85;;;;;;;;;;5043681;28;20139;-65
2023/06/20 02:22:57;;;;;;;11.38;5.60;;;;;;;;;;5043588;28;21000;-64
2023/06/20 02:26:41;;;;;;;8.65;5.70;;;;;;;;;;5038334;28;20044;-62
2023/06/20 02:30:21;;;;;;;7.68;5.45;;;;;;;;;;5046306;28;20052;-62
2023/06/20 02:34:01;;;;;;;11.57;5.90;;;;;;;;;;5048150;28;20056;-66
2023/06/20 02:37:42;;;;;;;8.75;5.38;;;;;;;;;;5041895;28;20048;-63
2023/06/20 02:41:22;;;;;;;13.15;5.90;;;;;;;;;;5033473;28;20412;-61
2023/06/20 02:45:02;;;;;;;10.38;5.82;;;;;;;;;;5034634;28;20069;-61
2023/06/20 02:48:38;;;;;;;13.27;5.68;;;;;;;;;;5040777;28;20138;-62
2023/06/20 02:51:58;;;;;;;11.90;5.50;;;;;;;;;;5043579;28;20140;-62
2023/06/20 02:55:05;;;;;;;14.55;5.85;;;;;;;;;;5038080;28;20064;-62
2023/06/20 02:58:48;;;;;;;10.88;5.97;;;;;;;;;;5036348;28;20124;-64
2023/06/20 03:02:29;;;;;;;12.25;6.00;;;;;;;;;;5044645;28;20055;-63
2023/06/20 03:06:10;;;;;;;7.90;5.40;;;;;;;;;;5044542;28;20055;-61
2023/06/20 03:09:51;;;;;;;10.75;5.68;;;;;;;;;;5041473;28;20102;-62
2023/06/20 03:13:31;;;;;;;11.70;5.70;;;;;;;;;;5042954;28;20087;-62
2023/06/20 03:17:11;;;;;;;11.68;5.47;;;;;;;;;;5046007;28;20092;-62
2023/06/20 03:20:52;;;;;;;8.35;5.50;;;;;;;;;;5037866;28;20045;-62
2023/06/20 03:24:32;;;;;;;13.00;5.28;;;;;;;;;;5048901;28;20037;-62
2023/06/20 03:28:12;;;;;;;11.50;5.80;;;;;;;;;;5040944;28;20048;-62
2023/06/20 03:31:52;;;;;;;10.05;5.25;;;;;;;;;;5049135;28;20040;-62
2023/06/20 03:35:33;;;;;;;11.68;5.57;;;;;;;;;;5026688;28;20056;-63
2023/06/20 03:39:13;;;;;;;9.90;5.28;;;;;;;;;;5045667;28;20523;-62
2023/06/20 03:42:54;;;;;;;14.77;5.25;;;;;;;;;;5034187;28;20049;-59
2023/06/20 03:46:35;;;;;;;6.55;4.97;;;;;;;;;;5039489;28;20130;-61
2023/06/20 03:50:15;;;;;;;8.77;5.05;;;;;;;;;;5033349;28;20397;-62
2023/06/20 03:53:55;;;;;;;10.50;5.60;;;;;;;;;;5038548;28;20106;-60
2023/06/20 03:57:36;;;;;;;11.85;5.60;;;;;;;;;;5051012;28;20504;-61
2023/06/20 04:01:16;;;;;;;9.05;5.40;;;;;;;;;;5030497;28;20037;-61
2023/06/20 04:04:57;;;;;;;11.18;5.00;;;;;;;;;;5048301;28;20047;-61
2023/06/20 04:08:37;;;;;;;14.40;5.50;;;;;;;;;;5042444;28;20056;-62
2023/06/20 04:12:18;;;;;;;11.30;5.93;;;;;;;;;;5036601;28;20073;-61
2023/06/20 04:15:58;;;;;;;11.88;5.55;;;;;;;;;;5039144;28;20051;-62
2023/06/20 04:19:38;;;;;;;10.60;5.78;;;;;;;;;;5033556;28;20048;-62
2023/06/20 04:23:19;;;;;;;15.25;6.25;;;;;;;;;;5049185;28;20463;-61
2023/06/20 04:26:59;;;;;;;13.80;6.32;;;;;;;;;;5042403;28;20128;-62
2023/06/20 04:30:41;;;;;;;12.02;6.00;;;;;;;;;;5034564;28;20572;-61
2023/06/20 04:34:23;;;;;;;12.45;5.93;;;;;;;;;;5050935;28;20238;-60
2023/06/20 04:38:03;;;;;;;15.73;6.05;;;;;;;;;;5048866;28;20063;-62
2023/06/20 04:41:43;;;;;;;11.95;5.90;;;;;;;;;;5041283;28;20273;-61
2023/06/20 04:45:23;;;;;;;11.43;5.93;;;;;;;;;;5037176;28;20037;-61
2023/06/20 04:49:07;;;;;;;14.73;6.40;;;;;;;;;;5044056;28;20041;-61
2023/06/20 04:52:47;;;;;;;13.27;6.28;;;;;;;;;;5053173;28;20466;-61
2023/06/20 04:56:28;;;;;;;14.88;6.53;;;;;;;;;;5042274;28;20045;-62
2023/06/20 05:00:13;;;;;;;12.13;5.90;;;;;;;;;;5044093;28;20051;-63
2023/06/20 05:03:53;;;;;;;11.68;6.22;;;;;;;;;;5041720;28;20505;-63
2023/06/20 05:07:32;;;;;;;18.67;6.53;;;;;;;;;;5040676;28;20032;-61
2023/06/20 05:11:13;;;;;;;9.48;6.60;;;;;;;;;;5038025;28;20685;-61
2023/06/20 05:14:13;;;;;;;14.23;6.47;;;;;;;;;;5034959;28;20060;-66
2023/06/20 05:16:39;;;;;;;15.25;6.63;;;;;;;;;;5041078;28;20056;-63
2023/06/20 05:19:45;;;;;;;12.18;6.80;;;;;;;;;;5038180;28;20061;-63
2023/06/20 05:22:46;;;;;;;15.38;6.97;;;;;;;;;;5037908;28;20056;-66
2023/06/20 05:25:12;;;;;;;14.30;6.55;;;;;;;;;;5036056;28;20478;-62
2023/06/20 05:27:38;;;;;;;14.38;6.80;;;;;;;;;;5046439;28;20110;-63
2023/06/20 05:30:06;;;;;;;19.27;6.55;;;;;;;;;;5042352;28;20114;-63
2023/06/20 05:32:32;;;;;;;16.85;6.50;;;;;;;;;;5045119;28;20056;-65
2023/06/20 05:34:58;;;;;;;19.20;6.65;;;;;;;;;;5035692;28;20049;-62
2023/06/20 05:37:24;;;;;;;22.77;6.93;;;;;;;;;;5035674;28;20107;-64
2023/06/20 05:39:50;;;;;;;15.65;7.80;;;;;;;;;;5036295;28;20118;-63
2023/06/20 05:42:17;;;;;;;21.27;8.07;;;;;;;;;;5034179;28;20445;-61
2023/06/20 05:44:43;;;;;;;29.63;8.52;;;;;;;;;;5035077;28;20040;-63
2023/06/20 05:47:12;;;;;;;26.58;8.63;;;;;;;;;;5035614;28;20052;-63
2023/06/20 05:49:40;;;;;;;20.45;8.82;;;;;;;;;;5040077;28;20053;-62
2023/06/20 05:52:06;;;;;;;23.85;8.77;;;;;;;;;;5048371;28;20056;-62
2023/06/20 05:54:32;;;;;;;23.08;9.23;;;;;;;;;;5033791;28;20053;-61
2023/06/20 05:56:58;;;;;;;20.52;8.65;;;;;;;;;;5040509;28;20060;-61
2023/06/20 05:59:26;;;;;;;22.05;9.63;;;;;;;;;;5054505;28;20474;-61
2023/06/20 06:01:53;;;;;;;24.30;8.95;;;;;;;;;;5034391;28;20064;-62
2023/06/20 06:04:20;;;;;;;18.42;8.95;;;;;;;;;;5041040;28;20444;-66
2023/06/20 06:06:46;;;;;;;23.13;8.77;;;;;;;;;;5040653;28;20049;-62
2023/06/20 06:09:12;;;;;;;19.88;8.13;;;;;;;;;;5043207;28;20048;-64
2023/06/20 06:11:38;;;;;;;18.77;7.95;;;;;;;;;;5038918;28;20060;-63
2023/06/20 06:14:12;;;;;;;17.63;8.45;;;;;;;;;;5034126;28;20069;-64
2023/06/20 06:16:47;;;;;;;17.42;8.43;;;;;;;;;;5031935;28;20410;-61
2023/06/20 06:19:53;;;;;;;21.63;8.48;;;;;;;;;;5036598;28;20049;-61
2023/06/20 06:23:10;;;;;;;20.58;8.20;;;;;;;;;;5041710;28;20405;-62
2023/06/20 06:26:16;;;;;;;19.38;7.22;;;;;;;;;;5037434;28;20561;-63
2023/06/20 06:29:41;;;;;;;13.70;6.60;;;;;;;;;;5041373;28;20055;-64
2023/06/20 06:32:47;;;;;;;15.73;7.18;;;;;;;;;;5040508;28;20127;-65
2023/06/20 06:36:27;;;;;;;19.13;6.65;;;;;;;;;;5043979;28;20045;-62
2023/06/20 06:40:07;;;;;;;14.85;6.68;;;;;;;;;;5030835;28;20042;-65
2023/06/20 06:43:49;;;;;;;17.48;7.25;;;;;;;;;;5036215;28;20045;-62
2023/06/20 06:47:29;;;;;;;19.35;6.93;;;;;;;;;;5044846;28;20041;-62
2023/06/20 06:51:09;;;;;;;15.85;7.90;;;;;;;;;;5034817;28;20134;-63
2023/06/20 06:54:50;;;;;;;18.85;8.00;;;;;;;;;;5032006;28;20041;-63
2023/06/20 06:58:30;;;;;;;17.92;7.70;;;;;;;;;;5040488;28;20080;-61
2023/06/20 07:01:53;;;;;;;18.52;7.93;;;;;;;;;;5035638;28;20150;-64
2023/06/20 07:04:59;;;;;;;16.10;7.43;;;;;;;;;;5034594;28;22377;-66
2023/06/20 07:08:39;;;;;;;12.43;7.25;;;;;;;;;;5037832;28;20063;-68
2023/06/20 07:12:20;;;;;;;18.08;7.30;;;;;;;;;;5041341;28;20064;-62
2023/06/20 07:16:00;;;;;;;22.40;7.50;;;;;;;;;;5033964;28;20481;-65
2023/06/20 07:19:42;;;;;;;20.15;7.07;;;;;;;;;;5030289;28;20099;-61
2023/06/20 07:23:22;;;;;;;21.42;7.75;;;;;;;;;;5041067;28;20049;-63
2023/06/20 07:27:03;;;;;;;17.92;7.28;;;;;;;;;;5039413;28;20057;-64
2023/06/20 07:30:44;;;;;;;22.95;7.38;;;;;;;;;;5048626;28;20045;-63
2023/06/20 07:34:24;;;;;;;21.73;6.95;;;;;;;;;;5035647;28;20069;-64
2023/06/20 07:38:05;;;;;;;20.17;6.90;;;;;;;;;;5039358;28;20377;-64
2023/06/20 07:41:45;;;;;;;20.48;7.57;;;;;;;;;;5048369;28;20045;-62
2023/06/20 07:45:25;;;;;;;19.05;6.50;;;;;;;;;;5038184;28;20040;-62
2023/06/20 07:49:06;;;;;;;19.08;7.15;;;;;;;;;;5044080;28;20140;-63
2023/06/20 07:52:47;;;;;;;18.48;6.97;;;;;;;;;;5044159;28;20408;-62
2023/06/20 07:56:29;;;;;;;21.95;6.90;;;;;;;;;;5052833;28;20400;-60
2023/06/20 08:00:10;;;;;;;20.58;6.63;;;;;;;;;;5041132;28;20074;-60
2023/06/20 08:03:49;;;;;;;16.10;6.13;;;;;;;;;;5038711;28;20053;-61
2023/06/20 08:07:30;;;;;;;18.67;5.68;;;;;;;;;;5042067;28;20046;-60
2023/06/20 08:11:10;;;;;;;12.23;6.05;;;;;;;;;;5039018;28;20045;-63
2023/06/20 08:14:51;;;;;;;15.02;5.72;;;;;;;;;;5041261;28;20440;-62
2023/06/20 08:18:31;;;;;;;16.33;5.28;;;;;;;;;;5046986;28;20150;-65
2023/06/20 08:22:11;;;;;;;19.75;5.78;;;;;;;;;;5040655;28;20075;-63
2023/06/20 08:25:52;;;;;;;16.10;6.03;;;;;;;;;;5035794;28;20080;-62
2023/06/20 08:29:33;;;;;;;19.55;5.85;;;;;;;;;;5043743;28;20124;-61
2023/06/20 08:33:12;;;;;;;14.23;5.70;;;;;;;;;;5037905;28;20124;-67
2023/06/20 08:36:54;;;;;;;15.13;6.10;;;;;;;;;;5043385;28;20033;-62
2023/06/20 08:40:34;;;;;;;17.45;6.80;;;;;;;;;;5042040;28;20232;-64
2023/06/20 08:44:14;;;;;;;20.70;6.38;;;;;;;;;;5045884;28;20781;-61
2023/06/20 08:47:58;;;;;;;22.15;6.55;;;;;;;;;;5035670;28;20052;-62
2023/06/20 08:51:40;;;;;;;21.95;7.35;;;;;;;;;;5038165;28;20396;-66
2023/06/20 08:55:21;;;;;;;15.32;6.78;;;;;;;;;;5041847;28;20044;-63
2023/06/20 08:59:02;;;;;;;17.02;6.43;;;;;;;;;;5044558;28;20048;-64
2023/06/20 09:02:45;;;;;;;15.98;6.15;;;;;;;;;;5039015;28;20497;-65
2023/06/20 09:06:25;;;;;;;23.17;6.47;;;;;;;;;;5039886;28;20064;-62
2023/06/20 09:10:07;;;;;;;16.73;5.63;;;;;;;;;;5040656;28;20371;-62
2023/06/20 09:13:47;;;;;;;18.02;6.18;;;;;;;;;;5048361;28;20080;-62
2023/06/20 09:17:28;;;;;;;14.27;6.57;;;;;;;;;;5039055;28;20063;-63
2023/06/20 09:21:09;;;;;;;16.98;6.25;;;;;;;;;;5034487;28;20049;-62
2023/06/20 09:24:49;;;;;;;16.63;6.07;;;;;;;;;;5042875;28;20052;-62
2023/06/20 09:28:34;;;;;;;13.80;5.15;;;;;;;;;;5038479;28;20124;-63
2023/06/20 09:32:20;;;;;;;11.88;5.20;;;;;;;;;;5045628;28;20049;-61
2023/06/20 09:36:02;;;;;;;11.85;4.97;;;;;;;;;;5040027;28;20033;-66
2023/06/20 09:39:42;;;;;;;13.32;5.28;;;;;;;;;;5045760;28;20053;-62
2023/06/20 09:43:22;;;;;;;10.52;4.72;;;;;;;;;;5039773;28;20053;-61
2023/06/20 09:47:03;;;;;;;10.25;4.75;;;;;;;;;;5040510;28;20735;-64
2023/06/20 09:50:52;;;;;;;16.95;5.85;;;;;;;;;;5043527;28;20227;-67
2023/06/20 09:54:42;;;;;;;14.13;5.72;;;;;;;;;;5035478;28;20080;-61
2023/06/20 09:58:23;;;;;;;10.85;5.38;;;;;;;;;;5041207;28;20541;-64
2023/06/20 10:02:03;;;;;;;10.43;5.32;;;;;;;;;;5040738;28;20284;-62
2023/06/20 10:05:44;;;;;;;12.07;5.30;;;;;;;;;;5038777;28;20048;-64
2023/06/20 10:09:24;;;;;;;20.50;5.45;;;;;;;;;;5039578;28;20163;-63
2023/06/20 10:13:04;;;;;;;14.60;5.07;;;;;;;;;;5037321;28;20577;-60
2023/06/20 10:16:45;;;;;;;19.92;5.03;;;;;;;;;;5040657;28;20048;-63
2023/06/20 10:20:26;;;;;;;19.85;5.30;;;;;;;;;;5039114;28;20084;-62
2023/06/20 10:24:11;;;;;;;14.07;5.03;;;;;;;;;;5036168;28;20048;-62
2023/06/20 10:27:50;;;;;;;19.73;5.20;;;;;;;;;;5037005;28;20508;-62
2023/06/20 10:30:52;;;;;;;14.57;5.28;;;;;;;;;;5045450;28;20056;-64
2023/06/20 10:34:32;;;;;;;14.82;5.75;;;;;;;;;;5045049;28;20083;-61
2023/06/20 10:38:15;;;;;;;16.15;5.50;;;;;;;;;;5038348;28;20041;-60
2023/06/20 10:41:44;;;;;;;15.90;5.88;;;;;;;;;;5050154;28;20446;-62
2023/06/20 10:45:17;;;;;;;12.80;5.43;;;;;;;;;;5040705;28;20059;-61
2023/06/20 10:48:57;;;;;;;16.50;5.22;;;;;;;;;;5036576;28;20045;-62
2023/06/20 10:52:37;;;;;;;13.23;5.57;;;;;;;;;;5042315;28;20083;-62
2023/06/20 10:56:17;;;;;;;14.27;5.22;;;;;;;;;;5035602;28;20475;-62
2023/06/20 10:59:58;;;;;;;13.02;5.47;;;;;;;;;;5043770;28;20060;-70
2023/06/20 11:03:38;;;;;;;13.60;5.13;;;;;;;;;;5045933;28;20053;-63
2023/06/20 11:07:20;;;;;;;14.65;5.30;;;;;;;;;;5043711;28;20041;-63
2023/06/20 11:11:02;;;;;;;23.63;7.53;;;;;;;;;;5040101;28;20061;-63
2023/06/20 11:14:49;;;;;;;15.43;5.65;;;;;;;;;;5035315;28;20469;-62
2023/06/20 11:18:30;;;;;;;15.77;5.78;;;;;;;;;;5041244;28;20138;-60
2023/06/20 11:22:12;;;;;;;12.63;6.18;;;;;;;;;;5034348;28;20056;-63
2023/06/20 11:25:45;;;;;;;11.23;5.60;;;;;;;;;;5037297;28;20053;-62
2023/06/20 11:29:25;;;;;;;12.77;6.15;;;;;;;;;;5039992;28;20084;-63
2023/06/20 11:33:00;;;;;;;18.35;5.60;;;;;;;;;;5042425;28;20132;-61
2023/06/20 11:36:42;;;;;;;11.60;5.80;;;;;;;;;;5034865;28;20054;-63
2023/06/20 11:40:22;;;;;;;16.83;6.15;;;;;;;;;;5036968;28;20068;-61
2023/06/20 11:44:05;;;;;;;11.60;5.35;;;;;;;;;;5043952;28;20564;-62
2023/06/20 11:47:45;;;;;;;21.85;5.63;;;;;;;;;;5040190;28;20244;-62
2023/06/20 11:51:29;;;;;;;18.30;6.30;;;;;;;;;;5043348;28;20048;-63
2023/06/20 11:55:10;;;;;;;13.00;5.68;;;;;;;;;;5041019;28;20054;-63
2023/06/20 11:59:02;;;;;;;20.40;6.07;;;;;;;;;;5045977;28;20048;-62
2023/06/20 12:02:43;;;;;;;18.83;5.45;;;;;;;;;;5039644;28;20056;-62
2023/06/20 12:06:23;;;;;;;15.00;5.25;;;;;;;;;;5036187;28;20381;-64
2023/06/20 12:10:04;;;;;;;20.75;5.10;;;;;;;;;;5041437;28;20668;-61
2023/06/20 12:13:44;;;;;;;13.40;5.22;;;;;;;;;;4513907;28;15319792;-62
2023/06/20 12:17:24;;;;;;;13.95;5.20;;;;;;;;;;5045460;28;20053;-63
2023/06/20 12:21:05;;;;;;;9.88;4.68;;;;;;;;;;5039244;28;20507;-61
2023/06/20 12:24:47;;;;;;;11.60;4.88;;;;;;;;;;5043566;28;20072;-62
2023/06/20 12:28:27;;;;;;;14.45;5.47;;;;;;;;;;5039958;28;20067;-61
2023/06/20 12:31:30;;;;;;;11.82;5.32;;;;;;;;;;5043351;28;20051;-62
2023/06/20 12:33:56;;;;;;;15.88;6.38;;;;;;;;;;5042445;28;20056;-61
2023/06/20 12:36:22;;;;;;;13.00;4.97;;;;;;;;;;5039575;28;20124;-68
2023/06/20 12:38:48;;;;;;;14.45;4.82;;;;;;;;;;5039571;28;20055;-61
2023/06/20 12:41:17;;;;;;;11.98;4.68;;;;;;;;;;5045698;28;20404;-63
2023/06/20 12:43:44;;;;;;;12.73;4.70;;;;;;;;;;5048509;28;20053;-60
2023/06/20 12:46:10;;;;;;;18.23;5.38;;;;;;;;;;5044239;28;20103;-62
2023/06/20 12:48:36;;;;;;;16.48;5.15;;;;;;;;;;5048330;28;20060;-64
2023/06/20 12:51:02;;;;;;;12.25;4.88;;;;;;;;;;5045081;28;20049;-63
2023/06/20 12:53:28;;;;;;;12.85;5.30;;;;;;;;;;5046151;28;20036;-61
2023/06/20 12:55:57;;;;;;;16.85;4.90;;;;;;;;;;5041633;28;20057;-62
2023/06/20 12:58:24;;;;;;;14.13;5.10;;;;;;;;;;5045880;28;20107;-63
2023/06/20 13:00:51;;;;;;;14.40;5.05;;;;;;;;;;5045890;28;20044;-66
2023/06/20 13:03:17;;;;;;;16.30;4.80;;;;;;;;;;5042001;28;20057;-64
2023/06/20 13:05:43;;;;;;;19.63;5.30;;;;;;;;;;5045164;28;20049;-62
2023/06/20 13:08:11;;;;;;;20.17;5.13;;;;;;;;;;5036763;28;20489;-61
2023/06/20 13:10:38;;;;;;;18.05;4.40;;;;;;;;;;5045432;28;20067;-61
2023/06/20 13:13:05;;;;;;;18.35;5.10;;;;;;;;;;5036068;28;20459;-62
2023/06/20 13:15:32;;;;;;;18.35;5.47;;;;;;;;;;5041777;28;20041;-63
2023/06/20 13:18:04;;;;;;;15.75;5.22;;;;;;;;;;5034500;28;20065;-61
2023/06/20 13:20:32;;;;;;;14.20;4.95;;;;;;;;;;5040818;28;20554;-62
2023/06/20 13:22:58;;;;;;;21.02;5.18;;;;;;;;;;5040943;28;20052;-62
2023/06/20 13:25:24;;;;;;;19.98;5.13;;;;;;;;;;5040731;28;20485;-63
2023/06/20 13:27:51;;;;;;;22.52;5.45;;;;;;;;;;5041437;28;20565;-64
2023/06/20 13:30:17;;;;;;;22.38;5.82;;;;;;;;;;5045109;28;20065;-61
2023/06/20 13:32:47;;;;;;;16.38;5.43;;;;;;;;;;5041914;28;20467;-62
2023/06/20 13:35:15;;;;;;;16.55;4.93;;;;;;;;;;5044889;28;20053;-61
2023/06/20 13:37:42;;;;;;;17.98;4.82;;;;;;;;;;5045929;28;20178;-61
2023/06/20 13:40:09;;;;;;;19.73;5.05;;;;;;;;;;5039951;28;20041;-64
2023/06/20 13:42:44;;;;;;;17.50;5.28;;;;;;;;;;5038253;28;20057;-63
2023/06/20 13:45:12;;;;;;;15.50;4.90;;;;;;;;;;5038534;28;20140;-63
2023/06/20 13:47:40;;;;;;;19.58;5.38;;;;;;;;;;5038842;28;20181;-61
2023/06/20 13:50:08;;;;;;;19.20;4.90;;;;;;;;;;5042082;28;20055;-63
2023/06/20 13:52:36;;;;;;;15.38;4.63;;;;;;;;;;5043135;28;20061;-62
2023/06/20 13:55:02;;;;;;;15.98;5.00;;;;;;;;;;5034646;28;20094;-62
2023/06/20 13:57:28;;;;;;;15.90;5.13;;;;;;;;;;5040973;28;20057;-63
2023/06/20 13:59:56;;;;;;;18.42;5.15;;;;;;;;;;5040782;28;20045;-64
2023/06/20 14:02:23;;;;;;;18.35;5.10;;;;;;;;;;5038104;28;20069;-63
2023/06/20 14:04:50;;;;;;;14.65;5.55;;;;;;;;;;5035416;28;20072;-64
2023/06/20 14:07:16;;;;;;;20.77;5.50;;;;;;;;;;5044786;28;20073;-68
2023/06/20 14:09:42;;;;;;;19.55;5.40;;;;;;;;;;5039803;28;20065;-63
2023/06/20 14:12:08;;;;;;;17.00;4.93;;;;;;;;;;5035494;28;20157;-62
2023/06/20 14:14:35;;;;;;;16.90;5.15;;;;;;;;;;5040127;28;20477;-62
2023/06/20 14:17:01;;;;;;;17.60;5.43;;;;;;;;;;5040688;28;20049;-64
2023/06/20 14:19:27;;;;;;;15.82;5.07;;;;;;;;;;5054532;28;20126;-64
2023/06/20 14:21:54;;;;;;;20.17;4.88;;;;;;;;;;5032219;28;20468;-64
2023/06/20 14:24:20;;;;;;;15.43;5.28;;;;;;;;;;5039779;28;20442;-63
2023/06/20 14:26:47;;;;;;;20.75;5.95;;;;;;;;;;5031257;28;20466;-62
2023/06/20 14:29:13;;;;;;;18.95;5.60;;;;;;;;;;5036764;28;20124;-63
2023/06/20 14:31:41;;;;;;;16.30;5.07;;;;;;;;;;5039597;28;20075;-63
2023/06/20 14:34:07;;;;;;;17.15;5.43;;;;;;;;;;5046259;28;20075;-64
2023/06/20 14:36:35;;;;;;;19.02;5.43;;;;;;;;;;5041565;28;20051;-63
2023/06/20 14:39:02;;;;;;;18.92;5.70;;;;;;;;;;5036387;28;20049;-63
2023/06/20 14:41:28;;;;;;;17.00;5.32;;;;;;;;;;5036497;28;20073;-64
2023/06/20 14:43:54;;;;;;;22.92;6.15;;;;;;;;;;5044278;28;20527;-62
2023/06/20 14:46:20;;;;;;;22.92;5.65;;;;;;;;;;5040937;28;20041;-62
2023/06/20 14:48:48;;;;;;;18.90;5.28;;;;;;;;;;5039587;28;20046;-64
2023/06/20 14:51:56;;;;;;;15.10;5.53;;;;;;;;;;5036736;28;20049;-61
2023/06/20 14:55:34;;;;;;;18.13;5.93;;;;;;;;;;5034988;28;20052;-63
2023/06/20 14:59:15;;;;;;;16.50;5.20;;;;;;;;;;5032229;28;20048;-62
2023/06/20 15:02:55;;;;;;;22.17;5.40;;;;;;;;;;5031665;28;20052;-64
2023/06/20 15:06:35;;;;;;;18.77;5.53;;;;;;;;;;5038658;28;20046;-64
2023/06/20 15:10:16;;;;;;;14.73;4.85;;;;;;;;;;5039532;28;20055;-64
2023/06/20 15:13:56;;;;;;;17.83;5.50;;;;;;;;;;5037490;28;20486;-65
2023/06/20 15:17:37;;;;;;;18.10;4.90;;;;;;;;;;5031942;28;20045;-64
2023/06/20 15:21:17;;;;;;;20.40;5.22;;;;;;;;;;5044739;28;20343;-63
2023/06/20 15:24:58;;;;;;;23.67;5.70;;;;;;;;;;5035995;28;20085;-64
2023/06/20 15:28:38;;;;;;;15.55;5.22;;;;;;;;;;5037787;28;20478;-63
2023/06/20 15:32:18;;;;;;;22.13;5.50;;;;;;;;;;5037841;28;20068;-61
2023/06/20 15:35:59;;;;;;;18.77;5.82;;;;;;;;;;5036167;28;20041;-64
2023/06/20 15:39:10;;;;;;;25.83;5.50;;;;;;;;;;5029603;28;20053;-67
2023/06/20 15:41:36;;;;;;;21.52;5.60;;;;;;;;;;5050452;28;20057;-63
2023/06/20 15:44:02;;;;;;;28.38;6.22;;;;;;;;;;5030784;28;20048;-65
2023/06/20 15:46:28;;;;;;;19.67;5.88;;;;;;;;;;5032459;28;20381;-67
2023/06/20 15:48:55;;;;;;;21.75;6.13;;;;;;;;;;5031863;28;20249;-62
2023/06/20 15:51:23;;;;;;;19.98;6.07;;;;;;;;;;5035653;28;20057;-62
2023/06/20 15:53:49;;;;;;;24.17;6.63;;;;;;;;;;5032889;28;20055;-63
2023/06/20 15:56:15;;;;;;;28.85;5.80;;;;;;;;;;5035338;28;20563;-64
2023/06/20 15:58:42;;;;;;;23.55;6.05;;;;;;;;;;5035812;28;20050;-63
2023/06/20 16:01:09;;;;;;;20.08;5.93;;;;;;;;;;5043456;28;20036;-63
2023/06/20 16:03:35;;;;;;;23.33;6.13;;;;;;;;;;5040102;28;20499;-62
2023/06/20 16:06:01;;;;;;;24.88;6.30;;;;;;;;;;5043849;28;20049;-63
2023/06/20 16:08:26;;;;;;;21.38;5.95;;;;;;;;;;5039428;28;20459;-63
2023/06/20 16:10:58;;;;;;;23.48;6.60;;;;;;;;;;5046408;28;20068;-62
2023/06/20 16:13:24;;;;;;;22.88;6.15;;;;;;;;;;5049792;28;20500;-65
2023/06/20 16:15:53;;;;;;;18.13;6.10;;;;;;;;;;5038941;28;20097;-65
2023/06/20 16:18:19;;;;;;;30.67;6.38;;;;;;;;;;5042283;28;20574;-65
2023/06/20 16:20:47;;;;;;;24.75;6.30;;;;;;;;;;5045388;28;20068;-64
2023/06/20 16:23:15;;;;;;;22.98;6.43;;;;;;;;;;5044133;28;20048;-64
2023/06/20 16:25:43;;;;;;;23.58;5.95;;;;;;;;;;5041091;28;20049;-63
2023/06/20 16:28:10;;;;;;;25.77;6.53;;;;;;;;;;5044294;28;20072;-64
2023/06/20 16:30:36;;;;;;;20.10;5.75;;;;;;;;;;5041979;28;20118;-63
2023/06/20 16:33:02;;;;;;;23.88;6.35;;;;;;;;;;5051320;28;20041;-62
2023/06/20 16:35:31;;;;;;;19.98;5.40;;;;;;;;;;5045206;28;20099;-62
2023/06/20 16:37:57;;;;;;;17.45;5.72;;;;;;;;;;5049047;28;20053;-62
2023/06/20 16:40:23;;;;;;;17.45;5.68;;;;;;;;;;5047670;28;20056;-63
2023/06/20 16:42:49;;;;;;;23.27;6.10;;;;;;;;;;5042624;28;20047;-63
2023/06/20 16:45:16;;;;;;;20.42;5.45;;;;;;;;;;5043938;28;20098;-65
2023/06/20 16:47:42;;;;;;;21.50;6.03;;;;;;;;;;5042980;28;20045;-65
2023/06/20 16:50:08;;;;;;;19.77;6.05;;;;;;;;;;5035741;28;20044;-65
2023/06/20 16:52:34;;;;;;;20.10;6.00;;;;;;;;;;5045780;28;20441;-65
2023/06/20 16:55:00;;;;;;;28.15;6.65;;;;;;;;;;5032017;28;20052;-65
2023/06/20 16:57:27;;;;;;;22.65;5.93;;;;;;;;;;5039460;28;20377;-67
2023/06/20 16:59:53;;;;;;;21.38;5.82;;;;;;;;;;5041298;28;20061;-63
2023/06/20 17:02:20;;;;;;;23.85;6.28;;;;;;;;;;5051591;28;20117;-68
2023/06/20 17:04:47;;;;;;;19.92;6.00;;;;;;;;;;5059553;28;20489;-62
2023/06/20 17:07:13;;;;;;;26.67;6.57;;;;;;;;;;5034113;28;20037;-68
2023/06/20 17:09:39;;;;;;;19.80;6.03;;;;;;;;;;5042003;28;20053;-65
2023/06/20 17:12:08;;;;;;;14.98;5.05;;;;;;;;;;5046150;28;20041;-62
2023/06/20 17:14:34;;;;;;;24.20;5.57;;;;;;;;;;5037463;28;20085;-65
2023/06/20 17:17:00;;;;;;;25.80;6.28;;;;;;;;;;5039860;28;20067;-64
2023/06/20 17:19:27;;;;;;;19.27;5.97;;;;;;;;;;5042178;28;20045;-62
2023/06/20 17:21:53;;;;;;;21.35;5.30;;;;;;;;;;5038990;28;20041;-63
2023/06/20 17:24:20;;;;;;;24.33;5.95;;;;;;;;;;5034294;28;20072;-62
2023/06/20 17:26:47;;;;;;;18.48;5.93;;;;;;;;;;5050022;28;20044;-66
2023/06/20 17:29:14;;;;;;;19.13;5.90;;;;;;;;;;5039360;28;20084;-65
2023/06/20 17:31:40;;;;;;;14.25;5.20;;;;;;;;;;5034857;28;20978;-68
2023/06/20 17:34:08;;;;;;;17.02;5.53;;;;;;;;;;5048424;28;20060;-68
2023/06/20 17:36:34;;;;;;;20.83;5.55;;;;;;;;;;5050733;28;20133;-65
2023/06/20 17:39:07;;;;;;;17.73;5.50;;;;;;;;;;5036237;28;20053;-68
2023/06/20 17:41:32;;;;;;;15.30;5.50;;;;;;;;;;5057565;28;20068;-70
2023/06/20 17:44:02;;;;;;;25.70;6.43;;;;;;;;;;5040310;28;20070;-64
2023/06/20 17:46:28;;;;;;;20.88;5.72;;;;;;;;;;5043518;28;20044;-62
2023/06/20 17:48:54;;;;;;;21.60;5.93;;;;;;;;;;5037024;28;20126;-64
2023/06/20 17:51:20;;;;;;;18.27;5.65;;;;;;;;;;5040708;28;20053;-63
2023/06/20 17:53:46;;;;;;;22.10;5.82;;;;;;;;;;5035279;28;20041;-65
2023/06/20 17:56:14;;;;;;;17.35;5.65;;;;;;;;;;5053495;28;20040;-66
2023/06/20 17:58:40;;;;;;;23.00;6.68;;;;;;;;;;5035481;28;20041;-64
2023/06/20 18:01:06;;;;;;;28.42;6.20;;;;;;;;;;5044981;28;20428;-62
2023/06/20 18:03:32;;;;;;;19.58;5.78;;;;;;;;;;5029489;28;20087;-64
2023/06/20 18:06:38;;;;;;;24.55;6.70;;;;;;;;;;5025264;28;20153;-62
2023/06/20 18:10:18;;;;;;;24.90;6.10;;;;;;;;;;5037929;28;20049;-68
2023/06/20 18:13:59;;;;;;;22.85;6.60;;;;;;;;;;5036050;28;20049;-64
2023/06/20 18:17:39;;;;;;;18.48;6.47;;;;;;;;;;5028031;28;20051;-66
2023/06/20 18:21:19;;;;;;;24.30;6.97;;;;;;;;;;5038671;28;20057;-65
2023/06/20 18:24:59;;;;;;;22.92;6.63;;;;;;;;;;5041729;28;20053;-64
2023/06/20 18:28:40;;;;;;;23.83;6.88;;;;;;;;;;5043612;28;20109;-65
2023/06/20 18:32:20;;;;;;;18.85;6.93;;;;;;;;;;5036782;28;20044;-64
2023/06/20 18:36:01;;;;;;;28.10;8.55;;;;;;;;;;5041230;28;20048;-65
2023/06/20 18:39:42;;;;;;;24.52;6.47;;;;;;;;;;5036842;28;20057;-65
2023/06/20 18:43:22;;;;;;;24.35;7.30;;;;;;;;;;5035762;28;20124;-63
2023/06/20 18:47:02;;;;;;;16.58;7.20;;;;;;;;;;5035042;28;20045;-61